Newburyport, MA (01950)

1:37 PM EST on December 04, 2016 (GMT -0500)
South End | | Change Station

Elev 50 ft 42.81 °N, 70.87 °W | Updated 1 minute ago

Clear
Clear
43.0 °F
Feels Like 39 °F
N
6.0
Wind Variable Wind from NW
Gusts 15.0 mph

Today
High -- | Low -- °F
--% Chance of Precip.
Yesterday
High -- | Low -- °F
Precip. -- in
Pressure 30.17 in
Visibility 10.0 miles
Clouds Clear
Windchill 39 °F
Dew Point 24 °F
Humidity 47%
Rainfall 0.00 in
Snow Depth Not available.
6:58 AM 4:09 PM
Waxing Crescent, 24% visible
METAR KLWM 041754Z 29011KT 10SM CLR 04/M07 A3017 RMK AO2 SLP217 T00441072 10050 20006 56007
Pressure 30.17 in
Visibility 10.0 miles
Clouds Clear
Windchill 39 °F
Dew Point 24 °F
Humidity 47%
Rainfall 0.00 in
Snow Depth Not available.
6:58 AM 4:09 PM
Waxing Crescent, 24% visible
METAR KLWM 041754Z 29011KT 10SM CLR 04/M07 A3017 RMK AO2 SLP217 T00441072 10050 20006 56007

10-Day Weather Forecast

Almanac

Astronomy

Dec. 04, 2016 Rise Set
Actual Time
Civil Twilight
Nautical Twilight
Astronomical Twilight
Moon
Length of Visible Light
Length of Day
Tomorrow will be .
, % of the Moon is Illuminated

Today's Extremes

State Highs State Lows

Community

WunderPhotos

Upload Photos

1,955,640 photos uploaded!

WunderBlog® & News

Nearby

Air Quality

  Air Quality AQ Index Pollutant
Not available.

Snow Depth

Station Depth Elevation

Earthquake Activity

City Distance Mag. Time & Date
Minimum magnitude displayed is 2.5.

Coastal Water Temperatures

Place Temperature

Stations

Nearby Weather Stations

Station Location Temp. Windchill Dew Point Humidity Wind Precip. Elev Updated Type
                   

Watches & Warnings

There are currently no watches in effect.